createdAt,value
2022-10-01T02:02:42.459Z,17.33
2022-10-01T02:31:19.961Z,17.16
2022-10-01T02:59:51.438Z,17.14
2022-10-01T03:28:30.318Z,17.11
2022-10-01T03:56:48.958Z,17.12
2022-10-01T04:25:19.504Z,17.08
2022-10-01T04:53:42.592Z,17.08
2022-10-01T05:22:21.765Z,17.05
2022-10-01T05:50:58.345Z,17.05
2022-10-01T06:19:45.421Z,17.03
2022-10-01T06:48:08.012Z,17.02
2022-10-01T07:16:50.407Z,17.01
2022-10-01T07:45:28.055Z,16.99
2022-10-01T08:13:43.170Z,16.99
2022-10-01T08:42:03.149Z,16.98
2022-10-01T09:10:16.694Z,16.97
2022-10-01T09:38:47.429Z,16.96
2022-10-01T10:07:15.622Z,16.96
2022-10-01T10:35:50.415Z,16.97
2022-10-01T11:04:09.646Z,16.97
2022-10-01T11:32:35.878Z,16.97
2022-10-01T12:01:08.906Z,16.96
2022-10-01T12:29:49.861Z,16.95
2022-10-01T12:58:20.829Z,16.97
2022-10-01T13:26:59.750Z,16.96
2022-10-01T13:55:39.588Z,16.97
2022-10-01T14:24:08.165Z,16.97
2022-10-01T14:52:45.279Z,16.98
2022-10-01T15:21:23.418Z,16.99
2022-10-01T15:50:08.749Z,16.99
2022-10-01T16:18:44.849Z,16.99
2022-10-01T16:47:23.015Z,17
2022-10-01T18:13:14.511Z,17.01
2022-10-01T18:41:50.880Z,17.01
2022-10-01T19:10:10.853Z,17
2022-10-01T20:06:58.898Z,17.01
2022-10-01T20:35:22.173Z,17.01
2022-10-01T22:29:49.030Z,17.01
2022-10-01T22:58:13.764Z,17
2022-10-01T23:26:57.086Z,17.01
2022-10-01T23:55:39.873Z,17.01
